sensor_id;sensor_type;location;lat;lon;timestamp;P1;durP1;ratioP1;P2;durP2;ratioP2
77191;SDS011;66172;48.526;8.078;2023-07-02T00:00:59;4.28;;;1.52;;
77191;SDS011;66172;48.526;8.078;2023-07-02T00:03:25;5.78;;;1.50;;
77191;SDS011;66172;48.526;8.078;2023-07-02T00:05:51;4.03;;;1.27;;
77191;SDS011;66172;48.526;8.078;2023-07-02T00:08:21;3.87;;;1.13;;
77191;SDS011;66172;48.526;8.078;2023-07-02T00:10:47;3.85;;;1.30;;
77191;SDS011;66172;48.526;8.078;2023-07-02T00:13:13;5.82;;;1.60;;
77191;SDS011;66172;48.526;8.078;2023-07-02T00:15:39;4.88;;;1.40;;
77191;SDS011;66172;48.526;8.078;2023-07-02T00:18:06;4.32;;;1.27;;
77191;SDS011;66172;48.526;8.078;2023-07-02T00:20:32;4.73;;;1.30;;
77191;SDS011;66172;48.526;8.078;2023-07-02T00:23:03;4.45;;;1.70;;
77191;SDS011;66172;48.526;8.078;2023-07-02T00:25:29;4.80;;;1.70;;
77191;SDS011;66172;48.526;8.078;2023-07-02T00:27:55;4.60;;;1.50;;
77191;SDS011;66172;48.526;8.078;2023-07-02T00:30:21;4.17;;;1.40;;
77191;SDS011;66172;48.526;8.078;2023-07-02T00:32:47;4.80;;;1.50;;
77191;SDS011;66172;48.526;8.078;2023-07-02T00:35:13;4.75;;;1.30;;
77191;SDS011;66172;48.526;8.078;2023-07-02T00:37:39;4.00;;;1.30;;
77191;SDS011;66172;48.526;8.078;2023-07-02T00:40:05;4.63;;;1.60;;
77191;SDS011;66172;48.526;8.078;2023-07-02T00:42:31;4.20;;;1.20;;
77191;SDS011;66172;48.526;8.078;2023-07-02T00:44:57;4.00;;;1.45;;
77191;SDS011;66172;48.526;8.078;2023-07-02T00:47:28;3.92;;;1.20;;
77191;SDS011;66172;48.526;8.078;2023-07-02T00:49:56;4.33;;;1.50;;
77191;SDS011;66172;48.526;8.078;2023-07-02T00:52:22;5.50;;;1.48;;
77191;SDS011;66172;48.526;8.078;2023-07-02T00:54:49;5.72;;;1.60;;
77191;SDS011;66172;48.526;8.078;2023-07-02T00:57:15;4.03;;;1.45;;
77191;SDS011;66172;48.526;8.078;2023-07-02T00:59:41;4.77;;;1.53;;
77191;SDS011;66172;48.526;8.078;2023-07-02T01:02:07;5.90;;;1.63;;
77191;SDS011;66172;48.526;8.078;2023-07-02T01:04:32;3.85;;;1.60;;
77191;SDS011;66172;48.526;8.078;2023-07-02T01:06:58;4.40;;;1.67;;
77191;SDS011;66172;48.526;8.078;2023-07-02T01:09:24;4.63;;;1.50;;
77191;SDS011;66172;48.526;8.078;2023-07-02T01:11:54;4.60;;;1.60;;
77191;SDS011;66172;48.526;8.078;2023-07-02T01:14:26;4.50;;;1.70;;
77191;SDS011;66172;48.526;8.078;2023-07-02T01:16:56;7.10;;;1.55;;
77191;SDS011;66172;48.526;8.078;2023-07-02T01:22:22;4.40;;;1.63;;
77191;SDS011;66172;48.526;8.078;2023-07-02T01:24:50;6.50;;;2.00;;
77191;SDS011;66172;48.526;8.078;2023-07-02T01:27:17;4.93;;;1.88;;
77191;SDS011;66172;48.526;8.078;2023-07-02T01:29:43;5.53;;;1.90;;
77191;SDS011;66172;48.526;8.078;2023-07-02T01:32:12;5.70;;;1.70;;
77191;SDS011;66172;48.526;8.078;2023-07-02T01:34:39;5.65;;;2.13;;
77191;SDS011;66172;48.526;8.078;2023-07-02T01:37:05;6.43;;;2.10;;
77191;SDS011;66172;48.526;8.078;2023-07-02T01:39:31;5.10;;;1.80;;
77191;SDS011;66172;48.526;8.078;2023-07-02T01:42:13;5.93;;;1.80;;
77191;SDS011;66172;48.526;8.078;2023-07-02T01:44:42;4.93;;;1.83;;
77191;SDS011;66172;48.526;8.078;2023-07-02T01:47:12;6.25;;;2.00;;
77191;SDS011;66172;48.526;8.078;2023-07-02T01:49:39;5.63;;;2.10;;
77191;SDS011;66172;48.526;8.078;2023-07-02T01:52:05;6.78;;;2.20;;
77191;SDS011;66172;48.526;8.078;2023-07-02T01:54:31;4.47;;;1.83;;
77191;SDS011;66172;48.526;8.078;2023-07-02T01:56:58;6.17;;;2.20;;
77191;SDS011;66172;48.526;8.078;2023-07-02T01:59:25;9.32;;;2.55;;
77191;SDS011;66172;48.526;8.078;2023-07-02T02:01:51;8.02;;;2.50;;
77191;SDS011;66172;48.526;8.078;2023-07-02T02:04:17;8.65;;;2.30;;
77191;SDS011;66172;48.526;8.078;2023-07-02T02:06:44;6.70;;;2.75;;
77191;SDS011;66172;48.526;8.078;2023-07-02T02:09:10;5.87;;;2.40;;
77191;SDS011;66172;48.526;8.078;2023-07-02T02:11:39;5.45;;;2.38;;
77191;SDS011;66172;48.526;8.078;2023-07-02T02:14:09;5.47;;;2.55;;
77191;SDS011;66172;48.526;8.078;2023-07-02T02:16:35;7.75;;;2.58;;
77191;SDS011;66172;48.526;8.078;2023-07-02T02:19:01;6.87;;;2.73;;
77191;SDS011;66172;48.526;8.078;2023-07-02T02:21:28;7.60;;;2.80;;
77191;SDS011;66172;48.526;8.078;2023-07-02T02:23:54;6.88;;;2.60;;
77191;SDS011;66172;48.526;8.078;2023-07-02T02:26:20;8.07;;;2.30;;
77191;SDS011;66172;48.526;8.078;2023-07-02T02:28:47;7.75;;;2.85;;
77191;SDS011;66172;48.526;8.078;2023-07-02T02:31:14;7.32;;;2.70;;
77191;SDS011;66172;48.526;8.078;2023-07-02T02:33:41;6.77;;;2.67;;
77191;SDS011;66172;48.526;8.078;2023-07-02T02:36:07;5.90;;;2.80;;
77191;SDS011;66172;48.526;8.078;2023-07-02T02:38:32;8.45;;;3.03;;
77191;SDS011;66172;48.526;8.078;2023-07-02T02:40:59;8.85;;;2.80;;
77191;SDS011;66172;48.526;8.078;2023-07-02T02:43:27;7.03;;;2.77;;
77191;SDS011;66172;48.526;8.078;2023-07-02T02:45:53;11.27;;;2.97;;
77191;SDS011;66172;48.526;8.078;2023-07-02T02:48:19;6.80;;;2.55;;
77191;SDS011;66172;48.526;8.078;2023-07-02T02:50:45;6.07;;;2.60;;
77191;SDS011;66172;48.526;8.078;2023-07-02T02:53:11;8.40;;;2.83;;
77191;SDS011;66172;48.526;8.078;2023-07-02T02:55:37;9.02;;;2.90;;
77191;SDS011;66172;48.526;8.078;2023-07-02T02:58:03;7.93;;;2.58;;
77191;SDS011;66172;48.526;8.078;2023-07-02T03:00:29;8.25;;;2.83;;
77191;SDS011;66172;48.526;8.078;2023-07-02T03:02:55;7.47;;;3.00;;
77191;SDS011;66172;48.526;8.078;2023-07-02T03:05:22;7.80;;;2.93;;
77191;SDS011;66172;48.526;8.078;2023-07-02T03:07:48;8.48;;;2.97;;
77191;SDS011;66172;48.526;8.078;2023-07-02T03:10:15;5.95;;;2.63;;
77191;SDS011;66172;48.526;8.078;2023-07-02T03:12:41;7.55;;;2.92;;
77191;SDS011;66172;48.526;8.078;2023-07-02T03:15:07;9.30;;;3.23;;
77191;SDS011;66172;48.526;8.078;2023-07-02T03:17:35;6.35;;;2.65;;
77191;SDS011;66172;48.526;8.078;2023-07-02T03:20:01;7.05;;;2.97;;
77191;SDS011;66172;48.526;8.078;2023-07-02T03:22:30;6.43;;;2.70;;
77191;SDS011;66172;48.526;8.078;2023-07-02T03:24:55;7.60;;;2.60;;
77191;SDS011;66172;48.526;8.078;2023-07-02T03:27:22;8.17;;;2.70;;
77191;SDS011;66172;48.526;8.078;2023-07-02T03:29:48;9.00;;;2.88;;
77191;SDS011;66172;48.526;8.078;2023-07-02T03:32:14;9.05;;;2.80;;
77191;SDS011;66172;48.526;8.078;2023-07-02T03:34:40;7.07;;;2.88;;
77191;SDS011;66172;48.526;8.078;2023-07-02T03:37:07;9.93;;;3.20;;
77191;SDS011;66172;48.526;8.078;2023-07-02T03:39:34;7.05;;;3.25;;
77191;SDS011;66172;48.526;8.078;2023-07-02T03:42:00;7.97;;;2.85;;
77191;SDS011;66172;48.526;8.078;2023-07-02T03:44:26;9.57;;;3.22;;
77191;SDS011;66172;48.526;8.078;2023-07-02T03:46:52;9.60;;;3.43;;
77191;SDS011;66172;48.526;8.078;2023-07-02T03:49:18;6.65;;;2.90;;
77191;SDS011;66172;48.526;8.078;2023-07-02T03:51:43;7.40;;;2.63;;
77191;SDS011;66172;48.526;8.078;2023-07-02T03:54:09;9.23;;;3.17;;
77191;SDS011;66172;48.526;8.078;2023-07-02T03:56:35;9.55;;;3.00;;
77191;SDS011;66172;48.526;8.078;2023-07-02T03:59:01;5.88;;;2.88;;
77191;SDS011;66172;48.526;8.078;2023-07-02T04:01:27;7.10;;;3.20;;
77191;SDS011;66172;48.526;8.078;2023-07-02T04:03:53;7.57;;;3.67;;
77191;SDS011;66172;48.526;8.078;2023-07-02T04:06:20;8.27;;;3.90;;
77191;SDS011;66172;48.526;8.078;2023-07-02T04:08:46;10.57;;;3.95;;
77191;SDS011;66172;48.526;8.078;2023-07-02T04:11:12;9.37;;;3.60;;
77191;SDS011;66172;48.526;8.078;2023-07-02T04:13:38;10.30;;;4.00;;
77191;SDS011;66172;48.526;8.078;2023-07-02T04:16:05;10.13;;;4.00;;
77191;SDS011;66172;48.526;8.078;2023-07-02T04:18:31;8.60;;;3.85;;
77191;SDS011;66172;48.526;8.078;2023-07-02T04:20:57;8.18;;;3.30;;
77191;SDS011;66172;48.526;8.078;2023-07-02T04:23:24;8.20;;;3.50;;
77191;SDS011;66172;48.526;8.078;2023-07-02T04:25:50;7.28;;;3.22;;
77191;SDS011;66172;48.526;8.078;2023-07-02T04:28:16;9.50;;;3.35;;
77191;SDS011;66172;48.526;8.078;2023-07-02T04:30:42;6.80;;;3.08;;
77191;SDS011;66172;48.526;8.078;2023-07-02T04:33:08;7.53;;;2.67;;
77191;SDS011;66172;48.526;8.078;2023-07-02T04:35:34;5.50;;;2.33;;
77191;SDS011;66172;48.526;8.078;2023-07-02T04:38:00;8.18;;;2.85;;
77191;SDS011;66172;48.526;8.078;2023-07-02T04:40:27;8.50;;;2.67;;
77191;SDS011;66172;48.526;8.078;2023-07-02T04:42:53;7.38;;;2.75;;
77191;SDS011;66172;48.526;8.078;2023-07-02T04:45:23;8.63;;;3.20;;
77191;SDS011;66172;48.526;8.078;2023-07-02T04:47:50;6.78;;;3.25;;
77191;SDS011;66172;48.526;8.078;2023-07-02T04:50:17;8.32;;;3.35;;
77191;SDS011;66172;48.526;8.078;2023-07-02T04:52:44;10.55;;;3.80;;
77191;SDS011;66172;48.526;8.078;2023-07-02T04:55:10;7.93;;;3.67;;
77191;SDS011;66172;48.526;8.078;2023-07-02T04:57:37;7.90;;;3.40;;
77191;SDS011;66172;48.526;8.078;2023-07-02T05:00:03;8.73;;;3.60;;
77191;SDS011;66172;48.526;8.078;2023-07-02T05:02:31;7.97;;;3.50;;
77191;SDS011;66172;48.526;8.078;2023-07-02T05:04:57;9.95;;;3.70;;
77191;SDS011;66172;48.526;8.078;2023-07-02T05:07:23;8.38;;;3.80;;
77191;SDS011;66172;48.526;8.078;2023-07-02T05:09:49;7.93;;;2.97;;
77191;SDS011;66172;48.526;8.078;2023-07-02T05:12:17;8.63;;;3.35;;
77191;SDS011;66172;48.526;8.078;2023-07-02T05:14:44;8.55;;;3.50;;
77191;SDS011;66172;48.526;8.078;2023-07-02T05:17:09;8.90;;;3.97;;
77191;SDS011;66172;48.526;8.078;2023-07-02T05:19:35;7.17;;;3.57;;
77191;SDS011;66172;48.526;8.078;2023-07-02T05:22:01;7.65;;;3.67;;
77191;SDS011;66172;48.526;8.078;2023-07-02T05:24:27;8.15;;;3.40;;
77191;SDS011;66172;48.526;8.078;2023-07-02T05:26:53;8.35;;;3.25;;
77191;SDS011;66172;48.526;8.078;2023-07-02T05:29:19;7.53;;;3.40;;
77191;SDS011;66172;48.526;8.078;2023-07-02T05:31:45;8.18;;;3.25;;
77191;SDS011;66172;48.526;8.078;2023-07-02T05:34:11;7.60;;;3.42;;
77191;SDS011;66172;48.526;8.078;2023-07-02T05:36:37;7.60;;;2.83;;
77191;SDS011;66172;48.526;8.078;2023-07-02T05:39:03;8.93;;;3.65;;
77191;SDS011;66172;48.526;8.078;2023-07-02T05:41:29;6.40;;;2.88;;
77191;SDS011;66172;48.526;8.078;2023-07-02T05:43:59;9.93;;;3.40;;
77191;SDS011;66172;48.526;8.078;2023-07-02T05:46:25;8.02;;;3.10;;
77191;SDS011;66172;48.526;8.078;2023-07-02T05:48:51;9.03;;;3.20;;
77191;SDS011;66172;48.526;8.078;2023-07-02T05:51:21;8.98;;;3.78;;
77191;SDS011;66172;48.526;8.078;2023-07-02T05:53:50;7.13;;;2.80;;
77191;SDS011;66172;48.526;8.078;2023-07-02T05:56:16;9.07;;;3.17;;
77191;SDS011;66172;48.526;8.078;2023-07-02T05:58:42;7.03;;;3.13;;
77191;SDS011;66172;48.526;8.078;2023-07-02T06:01:08;7.77;;;3.30;;
77191;SDS011;66172;48.526;8.078;2023-07-02T06:03:34;7.38;;;3.15;;
77191;SDS011;66172;48.526;8.078;2023-07-02T06:06:00;8.10;;;3.00;;
77191;SDS011;66172;48.526;8.078;2023-07-02T06:08:26;8.02;;;2.85;;
77191;SDS011;66172;48.526;8.078;2023-07-02T06:10:52;6.67;;;2.90;;
77191;SDS011;66172;48.526;8.078;2023-07-02T06:13:18;9.23;;;3.08;;
77191;SDS011;66172;48.526;8.078;2023-07-02T06:15:44;6.60;;;3.00;;
77191;SDS011;66172;48.526;8.078;2023-07-02T06:18:10;8.53;;;3.10;;
77191;SDS011;66172;48.526;8.078;2023-07-02T06:20:36;6.72;;;2.40;;
77191;SDS011;66172;48.526;8.078;2023-07-02T06:23:02;7.40;;;3.03;;
77191;SDS011;66172;48.526;8.078;2023-07-02T06:25:28;7.65;;;2.90;;
77191;SDS011;66172;48.526;8.078;2023-07-02T06:27:54;7.53;;;2.70;;
77191;SDS011;66172;48.526;8.078;2023-07-02T06:30:26;9.07;;;3.10;;
77191;SDS011;66172;48.526;8.078;2023-07-02T06:32:53;7.78;;;2.67;;
77191;SDS011;66172;48.526;8.078;2023-07-02T06:35:19;6.00;;;3.00;;
77191;SDS011;66172;48.526;8.078;2023-07-02T06:37:45;9.40;;;3.37;;
77191;SDS011;66172;48.526;8.078;2023-07-02T06:40:11;6.85;;;2.67;;
77191;SDS011;66172;48.526;8.078;2023-07-02T06:42:37;8.27;;;2.88;;
77191;SDS011;66172;48.526;8.078;2023-07-02T06:45:03;6.93;;;2.95;;
77191;SDS011;66172;48.526;8.078;2023-07-02T06:47:30;8.70;;;3.40;;
77191;SDS011;66172;48.526;8.078;2023-07-02T06:49:56;7.43;;;3.05;;
77191;SDS011;66172;48.526;8.078;2023-07-02T06:52:22;8.30;;;3.38;;
77191;SDS011;66172;48.526;8.078;2023-07-02T06:54:48;8.13;;;3.30;;
77191;SDS011;66172;48.526;8.078;2023-07-02T06:57:14;7.30;;;3.30;;
77191;SDS011;66172;48.526;8.078;2023-07-02T06:59:39;9.32;;;3.20;;
77191;SDS011;66172;48.526;8.078;2023-07-02T07:02:06;10.23;;;3.40;;
77191;SDS011;66172;48.526;8.078;2023-07-02T07:04:32;8.45;;;2.97;;
77191;SDS011;66172;48.526;8.078;2023-07-02T07:07:00;10.80;;;3.53;;
77191;SDS011;66172;48.526;8.078;2023-07-02T07:09:29;8.85;;;3.58;;
77191;SDS011;66172;48.526;8.078;2023-07-02T07:11:55;7.18;;;3.03;;
77191;SDS011;66172;48.526;8.078;2023-07-02T07:14:22;11.60;;;5.43;;
77191;SDS011;66172;48.526;8.078;2023-07-02T07:16:48;14.07;;;7.10;;
77191;SDS011;66172;48.526;8.078;2023-07-02T07:19:14;11.57;;;5.70;;
77191;SDS011;66172;48.526;8.078;2023-07-02T07:21:40;13.43;;;5.95;;
77191;SDS011;66172;48.526;8.078;2023-07-02T07:24:06;11.40;;;4.85;;
77191;SDS011;66172;48.526;8.078;2023-07-02T07:26:32;10.18;;;4.60;;
77191;SDS011;66172;48.526;8.078;2023-07-02T07:28:58;15.83;;;4.23;;
77191;SDS011;66172;48.526;8.078;2023-07-02T07:31:24;13.15;;;4.40;;
77191;SDS011;66172;48.526;8.078;2023-07-02T07:33:50;11.27;;;4.25;;
77191;SDS011;66172;48.526;8.078;2023-07-02T07:36:16;12.30;;;4.33;;
77191;SDS011;66172;48.526;8.078;2023-07-02T07:38:45;9.23;;;4.50;;
77191;SDS011;66172;48.526;8.078;2023-07-02T07:41:11;15.10;;;4.45;;
77191;SDS011;66172;48.526;8.078;2023-07-02T07:43:37;14.93;;;6.65;;
77191;SDS011;66172;48.526;8.078;2023-07-02T07:46:03;13.23;;;6.87;;
77191;SDS011;66172;48.526;8.078;2023-07-02T07:48:29;16.48;;;8.35;;
77191;SDS011;66172;48.526;8.078;2023-07-02T07:50:55;15.30;;;7.68;;
77191;SDS011;66172;48.526;8.078;2023-07-02T07:53:20;18.65;;;8.23;;
77191;SDS011;66172;48.526;8.078;2023-07-02T07:55:46;17.13;;;8.30;;
77191;SDS011;66172;48.526;8.078;2023-07-02T07:58:12;16.50;;;8.30;;
77191;SDS011;66172;48.526;8.078;2023-07-02T08:00:38;19.58;;;9.23;;
77191;SDS011;66172;48.526;8.078;2023-07-02T08:03:04;19.17;;;9.07;;
77191;SDS011;66172;48.526;8.078;2023-07-02T08:05:30;17.98;;;8.45;;
77191;SDS011;66172;48.526;8.078;2023-07-02T08:07:56;19.77;;;8.20;;
77191;SDS011;66172;48.526;8.078;2023-07-02T08:10:23;18.67;;;8.70;;
77191;SDS011;66172;48.526;8.078;2023-07-02T08:12:50;17.77;;;8.60;;
77191;SDS011;66172;48.526;8.078;2023-07-02T08:15:18;17.67;;;9.20;;
77191;SDS011;66172;48.526;8.078;2023-07-02T08:17:44;18.25;;;8.95;;
77191;SDS011;66172;48.526;8.078;2023-07-02T08:20:10;17.33;;;9.15;;
77191;SDS011;66172;48.526;8.078;2023-07-02T08:22:39;22.48;;;9.77;;
77191;SDS011;66172;48.526;8.078;2023-07-02T08:25:06;20.10;;;10.20;;
77191;SDS011;66172;48.526;8.078;2023-07-02T08:27:32;19.23;;;10.30;;
77191;SDS011;66172;48.526;8.078;2023-07-02T08:29:58;19.05;;;10.55;;
77191;SDS011;66172;48.526;8.078;2023-07-02T08:32:24;20.95;;;11.23;;
77191;SDS011;66172;48.526;8.078;2023-07-02T08:34:50;21.20;;;11.82;;
77191;SDS011;66172;48.526;8.078;2023-07-02T08:37:17;21.20;;;11.23;;
77191;SDS011;66172;48.526;8.078;2023-07-02T08:39:43;21.42;;;11.73;;
77191;SDS011;66172;48.526;8.078;2023-07-02T08:42:09;20.98;;;11.75;;
77191;SDS011;66172;48.526;8.078;2023-07-02T08:44:35;21.08;;;11.43;;
77191;SDS011;66172;48.526;8.078;2023-07-02T08:47:01;21.90;;;11.90;;
77191;SDS011;66172;48.526;8.078;2023-07-02T08:49:27;19.90;;;11.68;;
77191;SDS011;66172;48.526;8.078;2023-07-02T08:51:53;21.63;;;12.40;;
77191;SDS011;66172;48.526;8.078;2023-07-02T08:54:19;19.85;;;12.38;;
77191;SDS011;66172;48.526;8.078;2023-07-02T08:56:46;21.93;;;12.83;;
77191;SDS011;66172;48.526;8.078;2023-07-02T08:59:12;20.08;;;11.63;;
77191;SDS011;66172;48.526;8.078;2023-07-02T09:01:48;19.75;;;11.65;;
77191;SDS011;66172;48.526;8.078;2023-07-02T09:04:21;24.67;;;12.38;;
77191;SDS011;66172;48.526;8.078;2023-07-02T09:06:50;23.52;;;12.60;;
77191;SDS011;66172;48.526;8.078;2023-07-02T09:09:17;22.33;;;12.73;;
77191;SDS011;66172;48.526;8.078;2023-07-02T09:11:46;22.15;;;12.68;;
77191;SDS011;66172;48.526;8.078;2023-07-02T09:14:23;22.50;;;12.77;;
77191;SDS011;66172;48.526;8.078;2023-07-02T09:17:02;20.85;;;13.18;;
77191;SDS011;66172;48.526;8.078;2023-07-02T09:19:30;19.38;;;11.73;;
77191;SDS011;66172;48.526;8.078;2023-07-02T09:21:57;24.10;;;12.77;;
77191;SDS011;66172;48.526;8.078;2023-07-02T09:24:28;19.92;;;11.52;;
77191;SDS011;66172;48.526;8.078;2023-07-02T09:26:56;22.20;;;12.30;;
77191;SDS011;66172;48.526;8.078;2023-07-02T09:31:50;23.38;;;12.15;;
77191;SDS011;66172;48.526;8.078;2023-07-02T09:34:16;23.43;;;12.27;;
77191;SDS011;66172;48.526;8.078;2023-07-02T09:36:42;22.30;;;12.77;;
77191;SDS011;66172;48.526;8.078;2023-07-02T09:39:11;22.20;;;12.35;;
77191;SDS011;66172;48.526;8.078;2023-07-02T09:41:42;21.42;;;11.95;;
77191;SDS011;66172;48.526;8.078;2023-07-02T09:44:09;23.65;;;13.20;;
77191;SDS011;66172;48.526;8.078;2023-07-02T09:46:42;21.40;;;12.47;;
77191;SDS011;66172;48.526;8.078;2023-07-02T09:49:14;21.33;;;12.75;;
77191;SDS011;66172;48.526;8.078;2023-07-02T09:51:42;20.55;;;11.93;;
77191;SDS011;66172;48.526;8.078;2023-07-02T09:54:10;26.95;;;12.80;;
77191;SDS011;66172;48.526;8.078;2023-07-02T09:56:36;22.48;;;11.95;;
77191;SDS011;66172;48.526;8.078;2023-07-02T09:59:02;21.63;;;11.27;;
77191;SDS011;66172;48.526;8.078;2023-07-02T10:01:28;24.20;;;12.63;;
77191;SDS011;66172;48.526;8.078;2023-07-02T10:03:53;21.90;;;12.02;;
77191;SDS011;66172;48.526;8.078;2023-07-02T10:06:19;21.33;;;11.47;;
77191;SDS011;66172;48.526;8.078;2023-07-02T10:08:54;22.02;;;11.23;;
77191;SDS011;66172;48.526;8.078;2023-07-02T10:11:21;21.92;;;11.82;;
77191;SDS011;66172;48.526;8.078;2023-07-02T10:13:58;18.40;;;11.38;;
77191;SDS011;66172;48.526;8.078;2023-07-02T10:16:25;20.27;;;11.37;;
77191;SDS011;66172;48.526;8.078;2023-07-02T10:18:53;20.10;;;11.68;;
77191;SDS011;66172;48.526;8.078;2023-07-02T10:21:19;22.75;;;12.00;;
77191;SDS011;66172;48.526;8.078;2023-07-02T10:23:46;22.08;;;11.27;;
77191;SDS011;66172;48.526;8.078;2023-07-02T10:28:42;17.17;;;10.50;;
77191;SDS011;66172;48.526;8.078;2023-07-02T10:31:18;18.65;;;10.20;;
77191;SDS011;66172;48.526;8.078;2023-07-02T10:33:45;16.40;;;9.85;;
77191;SDS011;66172;48.526;8.078;2023-07-02T10:36:20;19.10;;;10.65;;
77191;SDS011;66172;48.526;8.078;2023-07-02T10:38:48;19.15;;;10.60;;
77191;SDS011;66172;48.526;8.078;2023-07-02T10:41:25;20.43;;;10.50;;
77191;SDS011;66172;48.526;8.078;2023-07-02T10:43:52;20.75;;;10.98;;
77191;SDS011;66172;48.526;8.078;2023-07-02T10:46:19;17.83;;;11.23;;
77191;SDS011;66172;48.526;8.078;2023-07-02T10:48:51;18.45;;;11.18;;
77191;SDS011;66172;48.526;8.078;2023-07-02T10:51:20;17.70;;;10.25;;
77191;SDS011;66172;48.526;8.078;2023-07-02T10:53:56;20.40;;;10.83;;
77191;SDS011;66172;48.526;8.078;2023-07-02T10:56:24;17.35;;;10.27;;
77191;SDS011;66172;48.526;8.078;2023-07-02T10:58:53;18.95;;;10.30;;
77191;SDS011;66172;48.526;8.078;2023-07-02T11:01:23;17.20;;;10.27;;
77191;SDS011;66172;48.526;8.078;2023-07-02T11:04:00;17.60;;;10.30;;
77191;SDS011;66172;48.526;8.078;2023-07-02T11:06:27;19.30;;;10.83;;
77191;SDS011;66172;48.526;8.078;2023-07-02T11:08:54;18.60;;;10.15;;
77191;SDS011;66172;48.526;8.078;2023-07-02T11:11:20;16.63;;;9.98;;
77191;SDS011;66172;48.526;8.078;2023-07-02T11:13:48;18.92;;;9.73;;
77191;SDS011;66172;48.526;8.078;2023-07-02T11:19:05;19.93;;;10.20;;
77191;SDS011;66172;48.526;8.078;2023-07-02T11:21:36;17.10;;;9.93;;
77191;SDS011;66172;48.526;8.078;2023-07-02T11:24:03;19.33;;;10.68;;
77191;SDS011;66172;48.526;8.078;2023-07-02T11:26:36;16.75;;;9.73;;
77191;SDS011;66172;48.526;8.078;2023-07-02T11:29:02;15.45;;;9.55;;
77191;SDS011;66172;48.526;8.078;2023-07-02T11:31:28;15.63;;;9.70;;
77191;SDS011;66172;48.526;8.078;2023-07-02T11:33:54;16.50;;;9.57;;
77191;SDS011;66172;48.526;8.078;2023-07-02T11:36:22;16.95;;;9.77;;
77191;SDS011;66172;48.526;8.078;2023-07-02T11:38:54;18.63;;;10.02;;
77191;SDS011;66172;48.526;8.078;2023-07-02T11:41:20;18.73;;;11.23;;
77191;SDS011;66172;48.526;8.078;2023-07-02T11:43:46;16.40;;;10.47;;
77191;SDS011;66172;48.526;8.078;2023-07-02T11:46:13;18.98;;;10.65;;
77191;SDS011;66172;48.526;8.078;2023-07-02T11:48:39;20.35;;;10.05;;
77191;SDS011;66172;48.526;8.078;2023-07-02T11:51:05;18.58;;;10.77;;
77191;SDS011;66172;48.526;8.078;2023-07-02T11:53:31;18.43;;;10.53;;
77191;SDS011;66172;48.526;8.078;2023-07-02T11:55:56;18.10;;;10.45;;
77191;SDS011;66172;48.526;8.078;2023-07-02T11:58:22;17.83;;;10.55;;
77191;SDS011;66172;48.526;8.078;2023-07-02T12:00:48;18.90;;;10.90;;
77191;SDS011;66172;48.526;8.078;2023-07-02T12:03:14;19.92;;;10.90;;
77191;SDS011;66172;48.526;8.078;2023-07-02T12:05:40;20.95;;;10.90;;
77191;SDS011;66172;48.526;8.078;2023-07-02T12:08:06;20.60;;;11.57;;
77191;SDS011;66172;48.526;8.078;2023-07-02T12:10:32;20.67;;;11.83;;
77191;SDS011;66172;48.526;8.078;2023-07-02T12:12:58;21.38;;;11.77;;
77191;SDS011;66172;48.526;8.078;2023-07-02T12:15:24;21.15;;;11.75;;
77191;SDS011;66172;48.526;8.078;2023-07-02T12:17:50;22.10;;;11.50;;
77191;SDS011;66172;48.526;8.078;2023-07-02T12:20:16;19.08;;;11.35;;
77191;SDS011;66172;48.526;8.078;2023-07-02T12:22:42;19.50;;;11.02;;
77191;SDS011;66172;48.526;8.078;2023-07-02T12:25:09;19.10;;;10.65;;
77191;SDS011;66172;48.526;8.078;2023-07-02T12:27:35;18.37;;;10.80;;
77191;SDS011;66172;48.526;8.078;2023-07-02T12:30:01;19.73;;;11.75;;
77191;SDS011;66172;48.526;8.078;2023-07-02T12:32:28;20.05;;;11.35;;
77191;SDS011;66172;48.526;8.078;2023-07-02T12:34:55;23.52;;;11.98;;
77191;SDS011;66172;48.526;8.078;2023-07-02T12:37:21;24.10;;;11.90;;
77191;SDS011;66172;48.526;8.078;2023-07-02T12:39:47;19.95;;;10.65;;
77191;SDS011;66172;48.526;8.078;2023-07-02T12:42:13;20.50;;;11.82;;
77191;SDS011;66172;48.526;8.078;2023-07-02T12:44:39;23.63;;;13.07;;
77191;SDS011;66172;48.526;8.078;2023-07-02T12:47:05;19.87;;;11.97;;
77191;SDS011;66172;48.526;8.078;2023-07-02T12:49:31;21.55;;;12.40;;
77191;SDS011;66172;48.526;8.078;2023-07-02T12:51:56;20.20;;;11.70;;
77191;SDS011;66172;48.526;8.078;2023-07-02T12:54:22;20.92;;;11.93;;
77191;SDS011;66172;48.526;8.078;2023-07-02T12:56:48;21.87;;;12.10;;
77191;SDS011;66172;48.526;8.078;2023-07-02T12:59:14;20.73;;;10.68;;
77191;SDS011;66172;48.526;8.078;2023-07-02T13:01:40;17.90;;;10.18;;
77191;SDS011;66172;48.526;8.078;2023-07-02T13:04:06;19.00;;;10.70;;
77191;SDS011;66172;48.526;8.078;2023-07-02T13:06:32;18.33;;;10.18;;
77191;SDS011;66172;48.526;8.078;2023-07-02T13:09:00;18.73;;;10.23;;
77191;SDS011;66172;48.526;8.078;2023-07-02T13:11:26;20.85;;;11.02;;
77191;SDS011;66172;48.526;8.078;2023-07-02T13:13:52;19.83;;;10.70;;
77191;SDS011;66172;48.526;8.078;2023-07-02T13:16:18;22.77;;;10.23;;
77191;SDS011;66172;48.526;8.078;2023-07-02T13:18:44;20.23;;;10.52;;
77191;SDS011;66172;48.526;8.078;2023-07-02T13:21:10;17.85;;;10.25;;
77191;SDS011;66172;48.526;8.078;2023-07-02T13:23:36;18.80;;;10.83;;
77191;SDS011;66172;48.526;8.078;2023-07-02T13:26:02;18.48;;;9.95;;
77191;SDS011;66172;48.526;8.078;2023-07-02T13:28:28;18.27;;;9.98;;
77191;SDS011;66172;48.526;8.078;2023-07-02T13:30:53;18.53;;;9.63;;
77191;SDS011;66172;48.526;8.078;2023-07-02T13:33:19;17.98;;;10.07;;
77191;SDS011;66172;48.526;8.078;2023-07-02T13:35:45;19.38;;;9.93;;
77191;SDS011;66172;48.526;8.078;2023-07-02T13:38:11;18.58;;;10.00;;
77191;SDS011;66172;48.526;8.078;2023-07-02T13:40:37;17.13;;;9.37;;
77191;SDS011;66172;48.526;8.078;2023-07-02T13:43:03;17.52;;;9.45;;
77191;SDS011;66172;48.526;8.078;2023-07-02T13:45:29;16.75;;;9.30;;
77191;SDS011;66172;48.526;8.078;2023-07-02T13:47:55;18.75;;;9.35;;
77191;SDS011;66172;48.526;8.078;2023-07-02T13:50:21;14.37;;;9.00;;
77191;SDS011;66172;48.526;8.078;2023-07-02T13:52:47;16.80;;;9.32;;
77191;SDS011;66172;48.526;8.078;2023-07-02T13:55:13;18.67;;;9.68;;
77191;SDS011;66172;48.526;8.078;2023-07-02T13:57:39;15.63;;;8.97;;
77191;SDS011;66172;48.526;8.078;2023-07-02T14:00:05;16.27;;;9.55;;
77191;SDS011;66172;48.526;8.078;2023-07-02T14:02:32;17.27;;;9.90;;
77191;SDS011;66172;48.526;8.078;2023-07-02T14:04:58;17.42;;;9.05;;
77191;SDS011;66172;48.526;8.078;2023-07-02T14:07:24;16.43;;;8.97;;
77191;SDS011;66172;48.526;8.078;2023-07-02T14:09:50;18.63;;;9.07;;
77191;SDS011;66172;48.526;8.078;2023-07-02T14:12:16;17.20;;;9.30;;
77191;SDS011;66172;48.526;8.078;2023-07-02T14:14:42;16.40;;;9.02;;
77191;SDS011;66172;48.526;8.078;2023-07-02T14:17:08;17.90;;;9.00;;
77191;SDS011;66172;48.526;8.078;2023-07-02T14:19:34;16.93;;;8.80;;
77191;SDS011;66172;48.526;8.078;2023-07-02T14:22:00;15.73;;;8.75;;
77191;SDS011;66172;48.526;8.078;2023-07-02T14:24:25;16.83;;;9.27;;
77191;SDS011;66172;48.526;8.078;2023-07-02T14:26:51;16.37;;;9.23;;
77191;SDS011;66172;48.526;8.078;2023-07-02T14:29:17;16.45;;;8.73;;
77191;SDS011;66172;48.526;8.078;2023-07-02T14:31:43;16.45;;;8.52;;
77191;SDS011;66172;48.526;8.078;2023-07-02T14:34:09;18.98;;;9.15;;
77191;SDS011;66172;48.526;8.078;2023-07-02T14:36:35;18.27;;;9.13;;
77191;SDS011;66172;48.526;8.078;2023-07-02T14:39:01;17.05;;;9.43;;
77191;SDS011;66172;48.526;8.078;2023-07-02T14:41:27;16.60;;;9.00;;
77191;SDS011;66172;48.526;8.078;2023-07-02T14:43:53;17.30;;;9.23;;